sensor_id;sensor_type;location;lat;lon;timestamp;pressure;altitude;pressure_sealevel;temperature;humidity
12879;BME280;20617;49.476;10.986;2023-04-29T00:01:16;97939.53;;;13.57;100.00
12879;BME280;20617;49.476;10.986;2023-04-29T00:03:24;97932.66;;;13.56;100.00
12879;BME280;20617;49.476;10.986;2023-04-29T00:05:31;97940.50;;;13.56;100.00
12879;BME280;20617;49.476;10.986;2023-04-29T00:07:39;97937.00;;;13.55;100.00
12879;BME280;20617;49.476;10.986;2023-04-29T00:09:44;97936.16;;;13.55;100.00
12879;BME280;20617;49.476;10.986;2023-04-29T00:11:49;97942.34;;;13.54;100.00
12879;BME280;20617;49.476;10.986;2023-04-29T00:13:54;97944.13;;;13.53;100.00
12879;BME280;20617;49.476;10.986;2023-04-29T00:15:59;97945.97;;;13.51;100.00
12879;BME280;20617;49.476;10.986;2023-04-29T00:18:04;97938.31;;;13.48;100.00
12879;BME280;20617;49.476;10.986;2023-04-29T00:20:11;97938.44;;;13.47;100.00
12879;BME280;20617;49.476;10.986;2023-04-29T00:22:16;97935.97;;;13.44;100.00
12879;BME280;20617;49.476;10.986;2023-04-29T00:24:25;97939.63;;;13.41;100.00
12879;BME280;20617;49.476;10.986;2023-04-29T00:26:30;97945.09;;;13.36;100.00
12879;BME280;20617;49.476;10.986;2023-04-29T00:28:36;97933.16;;;13.32;100.00
12879;BME280;20617;49.476;10.986;2023-04-29T00:30:41;97931.75;;;13.27;100.00
12879;BME280;20617;49.476;10.986;2023-04-29T00:32:46;97936.25;;;13.23;100.00
12879;BME280;20617;49.476;10.986;2023-04-29T00:34:51;97945.03;;;13.22;100.00
12879;BME280;20617;49.476;10.986;2023-04-29T00:36:56;97945.78;;;13.24;100.00
12879;BME280;20617;49.476;10.986;2023-04-29T00:39:01;97945.66;;;13.27;100.00
12879;BME280;20617;49.476;10.986;2023-04-29T00:41:12;97941.72;;;13.34;100.00
12879;BME280;20617;49.476;10.986;2023-04-29T00:43:17;97938.09;;;13.37;100.00
12879;BME280;20617;49.476;10.986;2023-04-29T00:45:22;97938.94;;;13.38;100.00
12879;BME280;20617;49.476;10.986;2023-04-29T00:47:30;97930.25;;;13.37;100.00
12879;BME280;20617;49.476;10.986;2023-04-29T00:49:36;97934.72;;;13.35;100.00
12879;BME280;20617;49.476;10.986;2023-04-29T00:51:41;97938.38;;;13.32;100.00
12879;BME280;20617;49.476;10.986;2023-04-29T00:53:46;97929.84;;;13.29;100.00
12879;BME280;20617;49.476;10.986;2023-04-29T00:55:52;97935.19;;;13.27;100.00
12879;BME280;20617;49.476;10.986;2023-04-29T00:58:00;97937.81;;;13.27;100.00
12879;BME280;20617;49.476;10.986;2023-04-29T01:00:08;97942.28;;;13.25;100.00
12879;BME280;20617;49.476;10.986;2023-04-29T01:02:15;97934.44;;;13.25;100.00
12879;BME280;20617;49.476;10.986;2023-04-29T01:04:21;97941.34;;;13.26;100.00
12879;BME280;20617;49.476;10.986;2023-04-29T01:06:28;97941.47;;;13.23;100.00
12879;BME280;20617;49.476;10.986;2023-04-29T01:08:43;97943.53;;;13.18;100.00
12879;BME280;20617;49.476;10.986;2023-04-29T01:11:03;97944.81;;;13.11;100.00
12879;BME280;20617;49.476;10.986;2023-04-29T01:13:17;97945.63;;;13.11;100.00
12879;BME280;20617;49.476;10.986;2023-04-29T01:15:29;97944.63;;;13.14;100.00
12879;BME280;20617;49.476;10.986;2023-04-29T01:17:41;97948.75;;;13.18;100.00
12879;BME280;20617;49.476;10.986;2023-04-29T01:19:51;97947.81;;;13.19;100.00
12879;BME280;20617;49.476;10.986;2023-04-29T01:21:57;97952.09;;;13.20;100.00
12879;BME280;20617;49.476;10.986;2023-04-29T01:24:06;97942.41;;;13.22;100.00
12879;BME280;20617;49.476;10.986;2023-04-29T01:26:11;97937.94;;;13.24;100.00
12879;BME280;20617;49.476;10.986;2023-04-29T01:28:44;97941.34;;;13.26;100.00
12879;BME280;20617;49.476;10.986;2023-04-29T01:30:56;97929.03;;;13.28;100.00
12879;BME280;20617;49.476;10.986;2023-04-29T01:33:11;97936.44;;;13.20;100.00
12879;BME280;20617;49.476;10.986;2023-04-29T01:35:34;97934.75;;;13.19;100.00
12879;BME280;20617;49.476;10.986;2023-04-29T01:37:51;97932.31;;;13.16;100.00
12879;BME280;20617;49.476;10.986;2023-04-29T01:40:08;97938.50;;;13.15;100.00
12879;BME280;20617;49.476;10.986;2023-04-29T01:42:25;97931.47;;;13.16;100.00
12879;BME280;20617;49.476;10.986;2023-04-29T01:44:37;97932.50;;;13.13;100.00
12879;BME280;20617;49.476;10.986;2023-04-29T01:46:50;97941.53;;;13.07;100.00
12879;BME280;20617;49.476;10.986;2023-04-29T01:49:00;97936.00;;;12.98;100.00
12879;BME280;20617;49.476;10.986;2023-04-29T01:51:05;97938.84;;;12.93;100.00
12879;BME280;20617;49.476;10.986;2023-04-29T01:53:11;97948.31;;;12.96;100.00
12879;BME280;20617;49.476;10.986;2023-04-29T01:55:20;97939.34;;;13.00;100.00
12879;BME280;20617;49.476;10.986;2023-04-29T01:57:44;97946.28;;;13.01;100.00
12879;BME280;20617;49.476;10.986;2023-04-29T02:00:08;97939.09;;;13.04;100.00
12879;BME280;20617;49.476;10.986;2023-04-29T02:02:24;97941.53;;;13.07;100.00
12879;BME280;20617;49.476;10.986;2023-04-29T02:04:39;97942.66;;;13.03;100.00
12879;BME280;20617;49.476;10.986;2023-04-29T02:06:44;97944.16;;;13.07;100.00
12879;BME280;20617;49.476;10.986;2023-04-29T02:08:51;97948.34;;;13.10;100.00
12879;BME280;20617;49.476;10.986;2023-04-29T02:10:59;97943.78;;;13.13;100.00
12879;BME280;20617;49.476;10.986;2023-04-29T02:13:10;97941.84;;;13.17;100.00
12879;BME280;20617;49.476;10.986;2023-04-29T02:15:16;97939.91;;;13.21;100.00
12879;BME280;20617;49.476;10.986;2023-04-29T02:17:21;97941.75;;;13.19;100.00
12879;BME280;20617;49.476;10.986;2023-04-29T02:19:26;97940.81;;;13.20;100.00
12879;BME280;20617;49.476;10.986;2023-04-29T02:21:31;97941.84;;;13.17;100.00
12879;BME280;20617;49.476;10.986;2023-04-29T02:23:36;97943.91;;;13.12;100.00
12879;BME280;20617;49.476;10.986;2023-04-29T02:25:41;97945.28;;;13.18;100.00
12879;BME280;20617;49.476;10.986;2023-04-29T02:27:49;97943.25;;;13.23;100.00
12879;BME280;20617;49.476;10.986;2023-04-29T02:29:54;97944.72;;;13.28;100.00
12879;BME280;20617;49.476;10.986;2023-04-29T02:31:59;97943.44;;;13.35;100.00
12879;BME280;20617;49.476;10.986;2023-04-29T02:34:04;97948.31;;;13.42;100.00
12879;BME280;20617;49.476;10.986;2023-04-29T02:36:09;97956.16;;;13.42;100.00
12879;BME280;20617;49.476;10.986;2023-04-29T02:38:14;97954.25;;;13.44;100.00
12879;BME280;20617;49.476;10.986;2023-04-29T02:40:19;97950.91;;;13.42;100.00
12879;BME280;20617;49.476;10.986;2023-04-29T02:42:26;97955.19;;;13.43;100.00
12879;BME280;20617;49.476;10.986;2023-04-29T02:44:34;97948.97;;;13.45;100.00
12879;BME280;20617;49.476;10.986;2023-04-29T02:46:39;97946.59;;;13.41;100.00
12879;BME280;20617;49.476;10.986;2023-04-29T02:48:46;97953.31;;;13.30;100.00
12879;BME280;20617;49.476;10.986;2023-04-29T02:50:51;97958.22;;;13.21;100.00
12879;BME280;20617;49.476;10.986;2023-04-29T02:52:56;97954.00;;;13.18;100.00
12879;BME280;20617;49.476;10.986;2023-04-29T02:55:01;97959.22;;;13.18;100.00
12879;BME280;20617;49.476;10.986;2023-04-29T02:57:07;97956.59;;;13.18;100.00
12879;BME280;20617;49.476;10.986;2023-04-29T02:59:13;97957.00;;;13.26;100.00
12879;BME280;20617;49.476;10.986;2023-04-29T03:01:20;97953.13;;;13.33;100.00
12879;BME280;20617;49.476;10.986;2023-04-29T03:03:25;97952.78;;;13.40;100.00
12879;BME280;20617;49.476;10.986;2023-04-29T03:05:31;97946.41;;;13.44;100.00
12879;BME280;20617;49.476;10.986;2023-04-29T03:07:36;97953.94;;;13.50;100.00
12879;BME280;20617;49.476;10.986;2023-04-29T03:09:42;97951.13;;;13.53;100.00
12879;BME280;20617;49.476;10.986;2023-04-29T03:11:47;97951.31;;;13.50;100.00
12879;BME280;20617;49.476;10.986;2023-04-29T03:13:53;97954.59;;;13.53;100.00
12879;BME280;20617;49.476;10.986;2023-04-29T03:15:58;97948.88;;;13.47;100.00
12879;BME280;20617;49.476;10.986;2023-04-29T03:18:05;97945.03;;;13.52;100.00
12879;BME280;20617;49.476;10.986;2023-04-29T03:20:11;97943.75;;;13.59;100.00
12879;BME280;20617;49.476;10.986;2023-04-29T03:22:16;97946.84;;;13.66;100.00
12879;BME280;20617;49.476;10.986;2023-04-29T03:24:22;97938.81;;;13.69;100.00
12879;BME280;20617;49.476;10.986;2023-04-29T03:26:27;97938.53;;;13.74;100.00
12879;BME280;20617;49.476;10.986;2023-04-29T03:28:32;97942.94;;;13.73;100.00
12879;BME280;20617;49.476;10.986;2023-04-29T03:30:37;97944.34;;;13.79;100.00
12879;BME280;20617;49.476;10.986;2023-04-29T03:32:44;97946.22;;;13.77;100.00
12879;BME280;20617;49.476;10.986;2023-04-29T03:34:52;97937.59;;;13.75;100.00
12879;BME280;20617;49.476;10.986;2023-04-29T03:37:06;97940.13;;;13.76;100.00
12879;BME280;20617;49.476;10.986;2023-04-29T03:39:14;97938.25;;;13.78;100.00
12879;BME280;20617;49.476;10.986;2023-04-29T03:41:19;97942.47;;;13.81;100.00
12879;BME280;20617;49.476;10.986;2023-04-29T03:43:25;97940.78;;;13.80;100.00
12879;BME280;20617;49.476;10.986;2023-04-29T03:45:30;97936.94;;;13.71;100.00
12879;BME280;20617;49.476;10.986;2023-04-29T03:47:35;97946.84;;;13.66;100.00
12879;BME280;20617;49.476;10.986;2023-04-29T03:49:40;97942.91;;;13.59;100.00
12879;BME280;20617;49.476;10.986;2023-04-29T03:51:47;97943.94;;;13.56;100.00
12879;BME280;20617;49.476;10.986;2023-04-29T03:53:53;97948.88;;;13.61;100.00
12879;BME280;20617;49.476;10.986;2023-04-29T03:56:00;97949.63;;;13.63;100.00
12879;BME280;20617;49.476;10.986;2023-04-29T03:58:05;97952.06;;;13.66;100.00
12879;BME280;20617;49.476;10.986;2023-04-29T04:00:11;97954.63;;;13.68;100.00
12879;BME280;20617;49.476;10.986;2023-04-29T04:02:24;97947.97;;;13.62;100.00
12879;BME280;20617;49.476;10.986;2023-04-29T04:04:29;97952.88;;;13.52;100.00
12879;BME280;20617;49.476;10.986;2023-04-29T04:06:35;97956.38;;;13.53;100.00
12879;BME280;20617;49.476;10.986;2023-04-29T04:08:42;97955.84;;;13.46;100.00
12879;BME280;20617;49.476;10.986;2023-04-29T04:10:51;97969.50;;;13.51;100.00
12879;BME280;20617;49.476;10.986;2023-04-29T04:13:15;97971.13;;;13.54;100.00
12879;BME280;20617;49.476;10.986;2023-04-29T04:15:20;97970.28;;;13.53;100.00
12879;BME280;20617;49.476;10.986;2023-04-29T04:17:24;97969.44;;;13.53;100.00
12879;BME280;20617;49.476;10.986;2023-04-29T04:19:30;97973.63;;;13.55;100.00
12879;BME280;20617;49.476;10.986;2023-04-29T04:21:34;97980.09;;;13.64;100.00
12879;BME280;20617;49.476;10.986;2023-04-29T04:23:46;97980.63;;;13.55;100.00
12879;BME280;20617;49.476;10.986;2023-04-29T04:25:55;97984.44;;;13.49;100.00
12879;BME280;20617;49.476;10.986;2023-04-29T04:28:33;97992.22;;;13.51;100.00
12879;BME280;20617;49.476;10.986;2023-04-29T04:30:45;97986.69;;;13.55;100.00
12879;BME280;20617;49.476;10.986;2023-04-29T04:32:50;97984.66;;;13.61;100.00
12879;BME280;20617;49.476;10.986;2023-04-29T04:34:55;97986.63;;;13.57;100.00
12879;BME280;20617;49.476;10.986;2023-04-29T04:37:00;97988.41;;;13.56;100.00
12879;BME280;20617;49.476;10.986;2023-04-29T04:39:09;97994.28;;;13.60;100.00
12879;BME280;20617;49.476;10.986;2023-04-29T04:41:14;97986.44;;;13.60;100.00
12879;BME280;20617;49.476;10.986;2023-04-29T04:43:21;97990.25;;;13.54;100.00
12879;BME280;20617;49.476;10.986;2023-04-29T04:45:27;97989.84;;;13.46;100.00
12879;BME280;20617;49.476;10.986;2023-04-29T04:47:33;97996.38;;;13.39;100.00
12879;BME280;20617;49.476;10.986;2023-04-29T04:49:46;97994.72;;;13.38;100.00
12879;BME280;20617;49.476;10.986;2023-04-29T04:51:51;98000.84;;;13.37;100.00
12879;BME280;20617;49.476;10.986;2023-04-29T04:53:56;98006.06;;;13.37;100.00
12879;BME280;20617;49.476;10.986;2023-04-29T04:56:06;98002.69;;;13.35;100.00
12879;BME280;20617;49.476;10.986;2023-04-29T04:58:12;98014.09;;;13.34;100.00
12879;BME280;20617;49.476;10.986;2023-04-29T05:00:17;98012.69;;;13.28;100.00
12879;BME280;20617;49.476;10.986;2023-04-29T05:02:22;98007.44;;;13.28;100.00
12879;BME280;20617;49.476;10.986;2023-04-29T05:04:28;98014.19;;;13.32;100.00
12879;BME280;20617;49.476;10.986;2023-04-29T05:06:33;98009.72;;;13.34;100.00
12879;BME280;20617;49.476;10.986;2023-04-29T05:08:38;98017.00;;;13.44;100.00
12879;BME280;20617;49.476;10.986;2023-04-29T05:10:47;98010.88;;;13.45;100.00
12879;BME280;20617;49.476;10.986;2023-04-29T05:12:55;98014.97;;;13.49;100.00
12879;BME280;20617;49.476;10.986;2023-04-29T05:15:00;98025.00;;;13.56;100.00
12879;BME280;20617;49.476;10.986;2023-04-29T05:17:06;98016.88;;;13.61;100.00
12879;BME280;20617;49.476;10.986;2023-04-29T05:19:12;98014.78;;;13.68;100.00
12879;BME280;20617;49.476;10.986;2023-04-29T05:21:17;98002.72;;;13.65;100.00
12879;BME280;20617;49.476;10.986;2023-04-29T05:23:22;98006.81;;;13.69;100.00
12879;BME280;20617;49.476;10.986;2023-04-29T05:25:27;98005.72;;;13.73;100.00
12879;BME280;20617;49.476;10.986;2023-04-29T05:27:32;98004.53;;;13.79;100.00
12879;BME280;20617;49.476;10.986;2023-04-29T05:29:43;98007.50;;;13.87;100.00
12879;BME280;20617;49.476;10.986;2023-04-29T05:31:48;98009.69;;;13.95;100.00
12879;BME280;20617;49.476;10.986;2023-04-29T05:33:53;98014.66;;;13.99;100.00
12879;BME280;20617;49.476;10.986;2023-04-29T05:35:59;98004.19;;;13.99;100.00
12879;BME280;20617;49.476;10.986;2023-04-29T05:38:05;98012.75;;;14.01;100.00
12879;BME280;20617;49.476;10.986;2023-04-29T05:40:13;98014.34;;;14.04;100.00
12879;BME280;20617;49.476;10.986;2023-04-29T05:42:18;98016.22;;;14.02;100.00
12879;BME280;20617;49.476;10.986;2023-04-29T05:44:25;98018.75;;;14.03;100.00
12879;BME280;20617;49.476;10.986;2023-04-29T05:46:32;98014.66;;;13.99;100.00
12879;BME280;20617;49.476;10.986;2023-04-29T05:48:37;98012.41;;;13.93;100.00
12879;BME280;20617;49.476;10.986;2023-04-29T05:50:44;98013.25;;;13.94;100.00
12879;BME280;20617;49.476;10.986;2023-04-29T05:52:49;98023.41;;;13.98;100.00
12879;BME280;20617;49.476;10.986;2023-04-29T05:54:56;98018.38;;;13.95;100.00
12879;BME280;20617;49.476;10.986;2023-04-29T05:57:01;98021.34;;;13.89;100.00
12879;BME280;20617;49.476;10.986;2023-04-29T05:59:06;98021.56;;;14.00;100.00
12879;BME280;20617;49.476;10.986;2023-04-29T06:01:11;98027.72;;;13.99;100.00
12879;BME280;20617;49.476;10.986;2023-04-29T06:03:19;98027.38;;;14.06;100.00
12879;BME280;20617;49.476;10.986;2023-04-29T06:05:31;98036.13;;;14.04;100.00
12879;BME280;20617;49.476;10.986;2023-04-29T06:08:03;98047.44;;;14.19;100.00
12879;BME280;20617;49.476;10.986;2023-04-29T06:10:20;98042.91;;;14.23;100.00
12879;BME280;20617;49.476;10.986;2023-04-29T06:12:25;98039.13;;;14.13;100.00
12879;BME280;20617;49.476;10.986;2023-04-29T06:14:32;98043.25;;;14.02;100.00
12879;BME280;20617;49.476;10.986;2023-04-29T06:16:38;98044.28;;;14.00;100.00
12879;BME280;20617;49.476;10.986;2023-04-29T06:18:45;98043.31;;;14.01;100.00
12879;BME280;20617;49.476;10.986;2023-04-29T06:20:51;98039.31;;;13.95;100.00
12879;BME280;20617;49.476;10.986;2023-04-29T06:22:56;98042.09;;;13.92;100.00
12879;BME280;20617;49.476;10.986;2023-04-29T06:25:02;98045.00;;;13.88;100.00
12879;BME280;20617;49.476;10.986;2023-04-29T06:27:21;98050.97;;;13.90;100.00
12879;BME280;20617;49.476;10.986;2023-04-29T06:29:26;98049.47;;;13.86;100.00
12879;BME280;20617;49.476;10.986;2023-04-29T06:31:31;98053.03;;;13.85;100.00
12879;BME280;20617;49.476;10.986;2023-04-29T06:33:38;98058.81;;;13.90;100.00
12879;BME280;20617;49.476;10.986;2023-04-29T06:35:46;98055.28;;;13.91;100.00
12879;BME280;20617;49.476;10.986;2023-04-29T06:38:17;98057.03;;;13.90;100.00
12879;BME280;20617;49.476;10.986;2023-04-29T06:40:45;98054.09;;;13.96;100.00
12879;BME280;20617;49.476;10.986;2023-04-29T06:42:50;98054.94;;;13.97;100.00
12879;BME280;20617;49.476;10.986;2023-04-29T06:45:08;98050.25;;;14.16;100.00
12879;BME280;20617;49.476;10.986;2023-04-29T06:47:19;98052.88;;;14.31;100.00
12879;BME280;20617;49.476;10.986;2023-04-29T06:49:44;98052.34;;;14.40;100.00
12879;BME280;20617;49.476;10.986;2023-04-29T06:51:51;98047.38;;;14.49;100.00
12879;BME280;20617;49.476;10.986;2023-04-29T06:54:00;98045.56;;;14.52;100.00
12879;BME280;20617;49.476;10.986;2023-04-29T06:56:06;98048.91;;;14.54;100.00
12879;BME280;20617;49.476;10.986;2023-04-29T06:58:11;98047.13;;;14.54;100.00
12879;BME280;20617;49.476;10.986;2023-04-29T07:00:16;98048.53;;;14.60;100.00
12879;BME280;20617;49.476;10.986;2023-04-29T07:02:23;98047.22;;;14.67;100.00
12879;BME280;20617;49.476;10.986;2023-04-29T07:04:28;98045.63;;;14.79;100.00
12879;BME280;20617;49.476;10.986;2023-04-29T07:06:33;98048.69;;;14.71;100.00
12879;BME280;20617;49.476;10.986;2023-04-29T07:08:46;98053.75;;;14.74;100.00
12879;BME280;20617;49.476;10.986;2023-04-29T07:10:54;98053.09;;;14.70;100.00
12879;BME280;20617;49.476;10.986;2023-04-29T07:13:00;98055.66;;;14.72;100.00
12879;BME280;20617;49.476;10.986;2023-04-29T07:15:06;98063.13;;;14.64;100.00
12879;BME280;20617;49.476;10.986;2023-04-29T07:17:11;98070.34;;;14.60;100.00
12879;BME280;20617;49.476;10.986;2023-04-29T07:19:16;98063.03;;;14.65;100.00
12879;BME280;20617;49.476;10.986;2023-04-29T07:21:22;98067.44;;;14.65;100.00
12879;BME280;20617;49.476;10.986;2023-04-29T07:23:28;98065.44;;;14.68;100.00
12879;BME280;20617;49.476;10.986;2023-04-29T07:25:35;98065.84;;;14.62;100.00
12879;BME280;20617;49.476;10.986;2023-04-29T07:27:41;98075.75;;;14.57;100.00
12879;BME280;20617;49.476;10.986;2023-04-29T07:29:45;98075.09;;;14.54;100.00
12879;BME280;20617;49.476;10.986;2023-04-29T07:31:50;98082.22;;;14.52;100.00
12879;BME280;20617;49.476;10.986;2023-04-29T07:33:55;98080.97;;;14.57;100.00
12879;BME280;20617;49.476;10.986;2023-04-29T07:36:01;98091.13;;;14.63;100.00
12879;BME280;20617;49.476;10.986;2023-04-29T07:38:06;98090.81;;;14.54;100.00
12879;BME280;20617;49.476;10.986;2023-04-29T07:40:11;98097.34;;;14.46;100.00
12879;BME280;20617;49.476;10.986;2023-04-29T07:42:19;98088.06;;;14.41;100.00
12879;BME280;20617;49.476;10.986;2023-04-29T07:44:25;98084.03;;;14.35;100.00
12879;BME280;20617;49.476;10.986;2023-04-29T07:46:31;98095.28;;;14.37;100.00
12879;BME280;20617;49.476;10.986;2023-04-29T07:48:37;98086.56;;;14.37;100.00
12879;BME280;20617;49.476;10.986;2023-04-29T07:50:42;98086.41;;;14.54;100.00
12879;BME280;20617;49.476;10.986;2023-04-29T07:52:47;98082.56;;;14.60;100.00
12879;BME280;20617;49.476;10.986;2023-04-29T07:54:53;98086.91;;;14.75;100.00
12879;BME280;20617;49.476;10.986;2023-04-29T07:56:59;98081.78;;;15.01;100.00
12879;BME280;20617;49.476;10.986;2023-04-29T07:59:07;98085.69;;;15.22;100.00
12879;BME280;20617;49.476;10.986;2023-04-29T08:01:12;98088.00;;;15.27;100.00
12879;BME280;20617;49.476;10.986;2023-04-29T08:03:17;98081.47;;;15.20;100.00
12879;BME280;20617;49.476;10.986;2023-04-29T08:05:23;98091.53;;;15.13;100.00
12879;BME280;20617;49.476;10.986;2023-04-29T08:07:29;98081.13;;;15.11;100.00
12879;BME280;20617;49.476;10.986;2023-04-29T08:09:34;98093.44;;;15.24;100.00
12879;BME280;20617;49.476;10.986;2023-04-29T08:11:39;98086.25;;;15.27;100.00
12879;BME280;20617;49.476;10.986;2023-04-29T08:13:46;98084.25;;;15.31;100.00
12879;BME280;20617;49.476;10.986;2023-04-29T08:15:54;98089.22;;;15.21;100.00
12879;BME280;20617;49.476;10.986;2023-04-29T08:17:59;98096.47;;;15.03;100.00
12879;BME280;20617;49.476;10.986;2023-04-29T08:20:08;98099.06;;;15.17;100.00
12879;BME280;20617;49.476;10.986;2023-04-29T08:22:13;98093.63;;;15.21;100.00
12879;BME280;20617;49.476;10.986;2023-04-29T08:24:18;98088.94;;;15.26;100.00
12879;BME280;20617;49.476;10.986;2023-04-29T08:26:23;98089.44;;;15.18;100.00
12879;BME280;20617;49.476;10.986;2023-04-29T08:28:28;98088.16;;;15.11;100.00
12879;BME280;20617;49.476;10.986;2023-04-29T08:30:36;98092.44;;;15.12;100.00
12879;BME280;20617;49.476;10.986;2023-04-29T08:32:44;98093.78;;;15.05;100.00
12879;BME280;20617;49.476;10.986;2023-04-29T08:34:49;98100.91;;;14.88;100.00
12879;BME280;20617;49.476;10.986;2023-04-29T08:36:56;98099.69;;;14.94;100.00
12879;BME280;20617;49.476;10.986;2023-04-29T08:39:01;98106.13;;;15.03;100.00
12879;BME280;20617;49.476;10.986;2023-04-29T08:41:08;98109.50;;;15.05;100.00
12879;BME280;20617;49.476;10.986;2023-04-29T08:43:13;98108.38;;;15.09;100.00
12879;BME280;20617;49.476;10.986;2023-04-29T08:45:19;98109.16;;;14.97;100.00
12879;BME280;20617;49.476;10.986;2023-04-29T08:47:24;98116.81;;;15.00;100.00
12879;BME280;20617;49.476;10.986;2023-04-29T08:49:32;98116.00;;;14.85;100.00
12879;BME280;20617;49.476;10.986;2023-04-29T08:51:39;98126.34;;;14.86;100.00
12879;BME280;20617;49.476;10.986;2023-04-29T08:53:44;98118.59;;;14.85;100.00
12879;BME280;20617;49.476;10.986;2023-04-29T08:55:49;98121.22;;;14.85;100.00
12879;BME280;20617;49.476;10.986;2023-04-29T08:57:54;98124.13;;;14.80;100.00
12879;BME280;20617;49.476;10.986;2023-04-29T09:00:00;98124.59;;;14.87;100.00
12879;BME280;20617;49.476;10.986;2023-04-29T09:02:08;98118.97;;;14.93;100.00
12879;BME280;20617;49.476;10.986;2023-04-29T09:04:29;98128.72;;;14.91;100.00
12879;BME280;20617;49.476;10.986;2023-04-29T09:06:42;98128.53;;;14.94;100.00
12879;BME280;20617;49.476;10.986;2023-04-29T09:08:48;98129.91;;;15.00;100.00
12879;BME280;20617;49.476;10.986;2023-04-29T09:10:53;98122.31;;;15.09;100.00
12879;BME280;20617;49.476;10.986;2023-04-29T09:12:59;98138.53;;;15.16;100.00
12879;BME280;20617;49.476;10.986;2023-04-29T09:15:05;98131.84;;;15.25;100.00
12879;BME280;20617;49.476;10.986;2023-04-29T09:17:10;98125.19;;;15.33;100.00
12879;BME280;20617;49.476;10.986;2023-04-29T09:19:30;98132.03;;;15.36;100.00
12879;BME280;20617;49.476;10.986;2023-04-29T09:21:35;98138.69;;;15.27;100.00
12879;BME280;20617;49.476;10.986;2023-04-29T09:23:43;98136.81;;;15.29;100.00
12879;BME280;20617;49.476;10.986;2023-04-29T09:25:55;98131.28;;;15.34;100.00
12879;BME280;20617;49.476;10.986;2023-04-29T09:28:13;98131.09;;;15.23;100.00
12879;BME280;20617;49.476;10.986;2023-04-29T09:30:18;98124.38;;;15.19;100.00
12879;BME280;20617;49.476;10.986;2023-04-29T09:32:23;98124.66;;;15.14;100.00
12879;BME280;20617;49.476;10.986;2023-04-29T09:34:32;98126.94;;;15.33;100.00
12879;BME280;20617;49.476;10.986;2023-04-29T09:36:43;98132.75;;;15.38;100.00
12879;BME280;20617;49.476;10.986;2023-04-29T09:38:55;98121.78;;;15.46;100.00
12879;BME280;20617;49.476;10.986;2023-04-29T09:41:08;98112.75;;;15.50;100.00
12879;BME280;20617;49.476;10.986;2023-04-29T09:43:19;98113.75;;;15.61;100.00
12879;BME280;20617;49.476;10.986;2023-04-29T09:45:32;98116.56;;;15.73;100.00
12879;BME280;20617;49.476;10.986;2023-04-29T09:47:37;98104.66;;;15.94;100.00
12879;BME280;20617;49.476;10.986;2023-04-29T09:49:43;98101.84;;;16.23;100.00
12879;BME280;20617;49.476;10.986;2023-04-29T09:51:55;98105.22;;;16.25;100.00
12879;BME280;20617;49.476;10.986;2023-04-29T09:54:19;98102.38;;;16.28;100.00
12879;BME280;20617;49.476;10.986;2023-04-29T09:56:24;98091.78;;;16.42;100.00
12879;BME280;20617;49.476;10.986;2023-04-29T09:58:32;98100.81;;;16.51;100.00
12879;BME280;20617;49.476;10.986;2023-04-29T10:00:39;98105.75;;;16.81;100.00
12879;BME280;20617;49.476;10.986;2023-04-29T10:02:46;98094.06;;;16.98;100.00
12879;BME280;20617;49.476;10.986;2023-04-29T10:04:53;98095.94;;;17.09;100.00
12879;BME280;20617;49.476;10.986;2023-04-29T10:07:01;98093.00;;;17.01;100.00
12879;BME280;20617;49.476;10.986;2023-04-29T10:09:09;98094.13;;;17.22;100.00
12879;BME280;20617;49.476;10.986;2023-04-29T10:11:17;98096.69;;;17.35;100.00
12879;BME280;20617;49.476;10.986;2023-04-29T10:13:22;98096.91;;;17.32;100.00
12879;BME280;20617;49.476;10.986;2023-04-29T10:15:35;98103.16;;;17.18;100.00
12879;BME280;20617;49.476;10.986;2023-04-29T10:17:43;98103.22;;;17.05;100.00
12879;BME280;20617;49.476;10.986;2023-04-29T10:19:52;98107.84;;;17.02;100.00
12879;BME280;20617;49.476;10.986;2023-04-29T10:22:06;98108.66;;;17.15;100.00
12879;BME280;20617;49.476;10.986;2023-04-29T10:24:16;98106.53;;;17.07;100.00
12879;BME280;20617;49.476;10.986;2023-04-29T10:26:24;98107.19;;;16.98;100.00
12879;BME280;20617;49.476;10.986;2023-04-29T10:28:31;98114.47;;;16.94;100.00
12879;BME280;20617;49.476;10.986;2023-04-29T10:30:36;98110.28;;;16.79;100.00
12879;BME280;20617;49.476;10.986;2023-04-29T10:32:45;98117.44;;;16.64;100.00
12879;BME280;20617;49.476;10.986;2023-04-29T10:34:54;98116.47;;;16.65;100.00
12879;BME280;20617;49.476;10.986;2023-04-29T10:37:01;98120.28;;;16.61;100.00
12879;BME280;20617;49.476;10.986;2023-04-29T10:39:10;98121.88;;;16.77;100.00
12879;BME280;20617;49.476;10.986;2023-04-29T10:41:22;98113.84;;;16.78;100.00
12879;BME280;20617;49.476;10.986;2023-04-29T10:43:30;98116.16;;;16.83;100.00
12879;BME280;20617;49.476;10.986;2023-04-29T10:45:35;98105.63;;;16.95;100.00
12879;BME280;20617;49.476;10.986;2023-04-29T10:48:07;98108.41;;;17.18;100.00
12879;BME280;20617;49.476;10.986;2023-04-29T10:50:12;98104.97;;;17.41;100.00
12879;BME280;20617;49.476;10.986;2023-04-29T10:52:18;98104.50;;;17.60;100.00
12879;BME280;20617;49.476;10.986;2023-04-29T10:54:23;98104.41;;;17.73;100.00
12879;BME280;20617;49.476;10.986;2023-04-29T10:56:38;98106.66;;;17.67;100.00
12879;BME280;20617;49.476;10.986;2023-04-29T10:58:44;98106.81;;;17.28;100.00
12879;BME280;20617;49.476;10.986;2023-04-29T11:00:49;98114.78;;;16.90;100.00